sensor_id;sensor_type;location;lat;lon;timestamp;pressure;altitude;pressure_sealevel;temperature;humidity
50550;BME280;36505;52.512;13.460;2024-03-07T00:02:11;102131.56;;;6.74;90.83
50550;BME280;36505;52.512;13.460;2024-03-07T00:04:37;102140.38;;;6.77;90.27
50550;BME280;36505;52.512;13.460;2024-03-07T00:07:03;102127.78;;;6.75;90.79
50550;BME280;36505;52.512;13.460;2024-03-07T00:09:32;102127.16;;;6.73;90.60
50550;BME280;36505;52.512;13.460;2024-03-07T00:11:57;102129.88;;;6.73;90.77
50550;BME280;36505;52.512;13.460;2024-03-07T00:14:23;102140.94;;;6.72;90.70
50550;BME280;36505;52.512;13.460;2024-03-07T00:16:53;102131.91;;;6.71;90.29
50550;BME280;36505;52.512;13.460;2024-03-07T00:19:18;102129.19;;;6.71;90.71
50550;BME280;36505;52.512;13.460;2024-03-07T00:21:43;102138.41;;;6.70;90.64
50550;BME280;36505;52.512;13.460;2024-03-07T00:24:09;102137.94;;;6.67;90.40
50550;BME280;36505;52.512;13.460;2024-03-07T00:26:34;102142.53;;;6.66;90.62
50550;BME280;36505;52.512;13.460;2024-03-07T00:28:59;102136.91;;;6.68;90.42
50550;BME280;36505;52.512;13.460;2024-03-07T00:31:25;102138.78;;;6.67;90.78
50550;BME280;36505;52.512;13.460;2024-03-07T00:33:51;102139.41;;;6.69;90.78
50550;BME280;36505;52.512;13.460;2024-03-07T00:36:17;102135.03;;;6.68;90.81
50550;BME280;36505;52.512;13.460;2024-03-07T00:38:43;102130.63;;;6.67;90.81
50550;BME280;36505;52.512;13.460;2024-03-07T00:41:09;102138.13;;;6.65;90.77
50550;BME280;36505;52.512;13.460;2024-03-07T00:43:35;102132.84;;;6.64;91.16
50550;BME280;36505;52.512;13.460;2024-03-07T00:46:01;102134.53;;;6.65;90.78
50550;BME280;36505;52.512;13.460;2024-03-07T00:48:26;102136.41;;;6.64;90.98
50550;BME280;36505;52.512;13.460;2024-03-07T00:50:52;102135.38;;;6.65;91.18
50550;BME280;36505;52.512;13.460;2024-03-07T00:53:17;102136.41;;;6.64;91.40
50550;BME280;36505;52.512;13.460;2024-03-07T00:55:42;102126.38;;;6.65;91.04
50550;BME280;36505;52.512;13.460;2024-03-07T00:58:09;102127.22;;;6.65;90.85
50550;BME280;36505;52.512;13.460;2024-03-07T01:00:34;102131.81;;;6.65;90.97
50550;BME280;36505;52.512;13.460;2024-03-07T01:03:00;102132.84;;;6.64;91.03
50550;BME280;36505;52.512;13.460;2024-03-07T01:05:26;102132.00;;;6.63;90.53
50550;BME280;36505;52.512;13.460;2024-03-07T01:07:51;102123.38;;;6.60;90.58
50550;BME280;36505;52.512;13.460;2024-03-07T01:10:18;102124.41;;;6.59;90.65
50550;BME280;36505;52.512;13.460;2024-03-07T01:12:43;102119.31;;;6.56;90.33
50550;BME280;36505;52.512;13.460;2024-03-07T01:15:09;102122.03;;;6.56;90.73
50550;BME280;36505;52.512;13.460;2024-03-07T01:17:36;102130.41;;;6.54;90.09
50550;BME280;36505;52.512;13.460;2024-03-07T01:20:02;102124.97;;;6.54;90.44
50550;BME280;36505;52.512;13.460;2024-03-07T01:22:27;102129.91;;;6.51;90.38
50550;BME280;36505;52.512;13.460;2024-03-07T01:24:53;102135.34;;;6.51;90.42
50550;BME280;36505;52.512;13.460;2024-03-07T01:27:18;102130.94;;;6.50;90.41
50550;BME280;36505;52.512;13.460;2024-03-07T01:29:44;102126.91;;;6.46;90.50
50550;BME280;36505;52.512;13.460;2024-03-07T01:32:10;102124.34;;;6.44;90.08
50550;BME280;36505;52.512;13.460;2024-03-07T01:34:36;102128.09;;;6.43;90.73
50550;BME280;36505;52.512;13.460;2024-03-07T01:37:02;102126.22;;;6.44;90.89
50550;BME280;36505;52.512;13.460;2024-03-07T01:39:27;102131.84;;;6.42;90.53
50550;BME280;36505;52.512;13.460;2024-03-07T01:41:53;102133.25;;;6.38;90.19
50550;BME280;36505;52.512;13.460;2024-03-07T01:44:18;102134.28;;;6.37;90.14
50550;BME280;36505;52.512;13.460;2024-03-07T01:46:44;102134.47;;;6.35;90.22
50550;BME280;36505;52.512;13.460;2024-03-07T01:49:10;102128.56;;;6.32;90.26
50550;BME280;36505;52.512;13.460;2024-03-07T01:51:37;102134.34;;;6.29;90.73
50550;BME280;36505;52.512;13.460;2024-03-07T01:54:03;102127.75;;;6.23;90.37
50550;BME280;36505;52.512;13.460;2024-03-07T01:56:29;102126.91;;;6.23;90.01
50550;BME280;36505;52.512;13.460;2024-03-07T01:58:55;102131.03;;;6.19;90.02
50550;BME280;36505;52.512;13.460;2024-03-07T02:01:22;102120.50;;;6.16;89.69
50550;BME280;36505;52.512;13.460;2024-03-07T02:03:48;102130.06;;;6.12;89.69
50550;BME280;36505;52.512;13.460;2024-03-07T02:06:14;102131.09;;;6.11;89.61
50550;BME280;36505;52.512;13.460;2024-03-07T02:08:40;102119.53;;;6.09;89.93
50550;BME280;36505;52.512;13.460;2024-03-07T02:11:05;102120.78;;;6.06;89.92
50550;BME280;36505;52.512;13.460;2024-03-07T02:13:30;102113.81;;;6.04;89.68
50550;BME280;36505;52.512;13.460;2024-03-07T02:15:57;102115.88;;;6.02;89.80
50550;BME280;36505;52.512;13.460;2024-03-07T02:18:24;102108.09;;;5.99;89.04
50550;BME280;36505;52.512;13.460;2024-03-07T02:20:49;102111.81;;;5.98;89.52
50550;BME280;36505;52.512;13.460;2024-03-07T02:23:15;102112.00;;;5.96;90.38
50550;BME280;36505;52.512;13.460;2024-03-07T02:25:41;102113.22;;;5.93;90.40
50550;BME280;36505;52.512;13.460;2024-03-07T02:28:06;102109.34;;;5.88;90.02
50550;BME280;36505;52.512;13.460;2024-03-07T02:30:32;102106.97;;;5.85;90.37
50550;BME280;36505;52.512;13.460;2024-03-07T02:32:59;102107.81;;;5.85;91.07
50550;BME280;36505;52.512;13.460;2024-03-07T02:35:34;102104.41;;;5.83;89.92
50550;BME280;36505;52.512;13.460;2024-03-07T02:38:04;102101.69;;;5.83;90.70
50550;BME280;36505;52.512;13.460;2024-03-07T02:40:30;102099.03;;;5.75;90.40
50550;BME280;36505;52.512;13.460;2024-03-07T02:42:55;102101.41;;;5.78;90.15
50550;BME280;36505;52.512;13.460;2024-03-07T02:45:21;102097.16;;;5.76;89.07
50550;BME280;36505;52.512;13.460;2024-03-07T02:47:46;102101.91;;;5.74;90.00
50550;BME280;36505;52.512;13.460;2024-03-07T02:50:11;102099.56;;;5.71;90.59
50550;BME280;36505;52.512;13.460;2024-03-07T02:52:37;102096.19;;;5.69;90.67
50550;BME280;36505;52.512;13.460;2024-03-07T02:55:04;102097.41;;;5.66;90.17
50550;BME280;36505;52.512;13.460;2024-03-07T02:57:31;102100.47;;;5.63;90.40
50550;BME280;36505;52.512;13.460;2024-03-07T02:59:56;102096.44;;;5.59;90.48
50550;BME280;36505;52.512;13.460;2024-03-07T03:02:22;102100.16;;;5.58;88.38
50550;BME280;36505;52.512;13.460;2024-03-07T03:04:48;102095.94;;;5.55;89.16
50550;BME280;36505;52.512;13.460;2024-03-07T03:07:13;102093.59;;;5.52;89.32
50550;BME280;36505;52.512;13.460;2024-03-07T03:09:39;102096.47;;;5.51;88.56
50550;BME280;36505;52.512;13.460;2024-03-07T03:12:11;102102.94;;;5.50;90.28
50550;BME280;36505;52.512;13.460;2024-03-07T03:14:37;102104.13;;;5.47;90.76
50550;BME280;36505;52.512;13.460;2024-03-07T03:17:03;102105.34;;;5.45;89.91
50550;BME280;36505;52.512;13.460;2024-03-07T03:19:29;102100.94;;;5.44;90.12
50550;BME280;36505;52.512;13.460;2024-03-07T03:21:54;102106.53;;;5.42;90.44
50550;BME280;36505;52.512;13.460;2024-03-07T03:24:21;102103.34;;;5.39;90.58
50550;BME280;36505;52.512;13.460;2024-03-07T03:26:47;102109.09;;;5.36;89.96
50550;BME280;36505;52.512;13.460;2024-03-07T03:29:12;102104.88;;;5.33;90.91
50550;BME280;36505;52.512;13.460;2024-03-07T03:31:39;102111.50;;;5.31;90.21
50550;BME280;36505;52.512;13.460;2024-03-07T03:34:05;102112.88;;;5.27;90.62
50550;BME280;36505;52.512;13.460;2024-03-07T03:36:30;102115.78;;;5.25;89.47
50550;BME280;36505;52.512;13.460;2024-03-07T03:38:56;102114.09;;;5.24;89.89
50550;BME280;36505;52.512;13.460;2024-03-07T03:41:22;102115.28;;;5.22;90.26
50550;BME280;36505;52.512;13.460;2024-03-07T03:43:48;102119.38;;;5.18;89.24
50550;BME280;36505;52.512;13.460;2024-03-07T03:46:13;102125.16;;;5.14;89.45
50550;BME280;36505;52.512;13.460;2024-03-07T03:48:39;102122.81;;;5.11;88.72
50550;BME280;36505;52.512;13.460;2024-03-07T03:51:10;102113.97;;;5.09;89.22
50550;BME280;36505;52.512;13.460;2024-03-07T03:53:36;102118.72;;;5.07;89.40
50550;BME280;36505;52.512;13.460;2024-03-07T03:56:02;102112.81;;;5.04;88.90
50550;BME280;36505;52.512;13.460;2024-03-07T03:58:30;102122.31;;;5.00;88.27
50550;BME280;36505;52.512;13.460;2024-03-07T04:00:55;102117.91;;;4.99;88.67
50550;BME280;36505;52.512;13.460;2024-03-07T04:03:21;102126.88;;;4.99;89.56
50550;BME280;36505;52.512;13.460;2024-03-07T04:05:46;102131.84;;;4.96;89.61
50550;BME280;36505;52.512;13.460;2024-03-07T04:08:12;102130.31;;;4.93;89.89
50550;BME280;36505;52.512;13.460;2024-03-07T04:10:38;102134.03;;;4.92;89.62
50550;BME280;36505;52.512;13.460;2024-03-07T04:13:04;102127.97;;;4.90;89.92
50550;BME280;36505;52.512;13.460;2024-03-07T04:15:29;102130.00;;;4.88;88.70
50550;BME280;36505;52.512;13.460;2024-03-07T04:17:57;102126.75;;;4.85;88.99
50550;BME280;36505;52.512;13.460;2024-03-07T04:20:23;102134.06;;;4.84;89.51
50550;BME280;36505;52.512;13.460;2024-03-07T04:22:50;102133.41;;;4.82;89.62
50550;BME280;36505;52.512;13.460;2024-03-07T04:25:16;102126.44;;;4.80;89.71
50550;BME280;36505;52.512;13.460;2024-03-07T04:27:41;102136.63;;;4.78;89.94
50550;BME280;36505;52.512;13.460;2024-03-07T04:30:08;102131.38;;;4.76;89.38
50550;BME280;36505;52.512;13.460;2024-03-07T04:32:36;102125.44;;;4.72;89.08
50550;BME280;36505;52.512;13.460;2024-03-07T04:35:03;102133.75;;;4.71;88.92
50550;BME280;36505;52.512;13.460;2024-03-07T04:37:29;102131.22;;;4.69;88.37
50550;BME280;36505;52.512;13.460;2024-03-07T04:39:55;102136.81;;;4.68;89.70
50550;BME280;36505;52.512;13.460;2024-03-07T04:42:20;102131.56;;;4.66;89.05
50550;BME280;36505;52.512;13.460;2024-03-07T04:44:46;102135.47;;;4.64;89.43
50550;BME280;36505;52.512;13.460;2024-03-07T04:47:11;102134.63;;;4.63;89.52
50550;BME280;36505;52.512;13.460;2024-03-07T04:49:37;102134.09;;;4.60;88.51
50550;BME280;36505;52.512;13.460;2024-03-07T04:52:03;102142.41;;;4.58;89.25
50550;BME280;36505;52.512;13.460;2024-03-07T04:54:29;102141.75;;;4.56;88.56
50550;BME280;36505;52.512;13.460;2024-03-07T04:56:55;102138.53;;;4.53;88.30
50550;BME280;36505;52.512;13.460;2024-03-07T04:59:21;102138.69;;;4.51;88.32
50550;BME280;36505;52.512;13.460;2024-03-07T05:01:48;102142.59;;;4.49;88.00
50550;BME280;36505;52.512;13.460;2024-03-07T05:04:15;102151.75;;;4.48;88.87
50550;BME280;36505;52.512;13.460;2024-03-07T05:06:41;102147.34;;;4.47;88.26
50550;BME280;36505;52.512;13.460;2024-03-07T05:09:09;102151.06;;;4.46;87.69
50550;BME280;36505;52.512;13.460;2024-03-07T05:11:46;102152.44;;;4.42;88.23
50550;BME280;36505;52.512;13.460;2024-03-07T05:14:12;102151.59;;;4.41;88.58
50550;BME280;36505;52.512;13.460;2024-03-07T05:16:37;102157.00;;;4.41;88.29
50550;BME280;36505;52.512;13.460;2024-03-07T05:19:08;102161.75;;;4.39;87.78
50550;BME280;36505;52.512;13.460;2024-03-07T05:21:34;102161.25;;;4.35;88.39
50550;BME280;36505;52.512;13.460;2024-03-07T05:24:04;102164.81;;;4.36;89.34
50550;BME280;36505;52.512;13.460;2024-03-07T05:26:37;102159.56;;;4.34;88.92
50550;BME280;36505;52.512;13.460;2024-03-07T05:29:04;102152.75;;;4.30;88.91
50550;BME280;36505;52.512;13.460;2024-03-07T05:31:33;102167.00;;;4.32;88.12
50550;BME280;36505;52.512;13.460;2024-03-07T05:34:02;102164.66;;;4.29;87.97
50550;BME280;36505;52.512;13.460;2024-03-07T05:36:34;102164.81;;;4.28;88.41
50550;BME280;36505;52.512;13.460;2024-03-07T05:39:00;102173.09;;;4.26;88.95
50550;BME280;36505;52.512;13.460;2024-03-07T05:41:28;102167.69;;;4.26;88.93
50550;BME280;36505;52.512;13.460;2024-03-07T05:43:55;102175.13;;;4.24;88.25
50550;BME280;36505;52.512;13.460;2024-03-07T05:46:21;102179.91;;;4.22;87.40
50550;BME280;36505;52.512;13.460;2024-03-07T05:48:46;102180.06;;;4.21;87.61
50550;BME280;36505;52.512;13.460;2024-03-07T05:51:15;102179.38;;;4.19;88.47
50550;BME280;36505;52.512;13.460;2024-03-07T05:53:41;102183.25;;;4.16;88.31
50550;BME280;36505;52.512;13.460;2024-03-07T05:56:07;102177.81;;;4.16;88.69
50550;BME280;36505;52.512;13.460;2024-03-07T05:58:33;102177.81;;;4.16;88.31
50550;BME280;36505;52.512;13.460;2024-03-07T06:00:58;102185.31;;;4.14;87.87
50550;BME280;36505;52.512;13.460;2024-03-07T06:03:24;102179.03;;;4.14;88.01
50550;BME280;36505;52.512;13.460;2024-03-07T06:05:50;102187.00;;;4.15;87.85
50550;BME280;36505;52.512;13.460;2024-03-07T06:08:17;102188.50;;;4.18;88.41
50550;BME280;36505;52.512;13.460;2024-03-07T06:10:44;102192.59;;;4.22;88.77
50550;BME280;36505;52.512;13.460;2024-03-07T06:13:14;102189.38;;;4.26;89.04
50550;BME280;36505;52.512;13.460;2024-03-07T06:15:43;102188.84;;;4.31;89.22
50550;BME280;36505;52.512;13.460;2024-03-07T06:18:08;102191.94;;;4.36;89.03
50550;BME280;36505;52.512;13.460;2024-03-07T06:20:35;102192.28;;;4.41;89.23
50550;BME280;36505;52.512;13.460;2024-03-07T06:23:01;102197.88;;;4.48;88.97
50550;BME280;36505;52.512;13.460;2024-03-07T06:25:34;102198.19;;;4.53;88.30
50550;BME280;36505;52.512;13.460;2024-03-07T06:28:03;102206.34;;;4.61;86.97
50550;BME280;36505;52.512;13.460;2024-03-07T06:30:56;102197.84;;;4.72;88.59
50550;BME280;36505;52.512;13.460;2024-03-07T06:33:21;102203.78;;;4.84;90.26
50550;BME280;36505;52.512;13.460;2024-03-07T06:35:47;102193.41;;;4.95;90.87
50550;BME280;36505;52.512;13.460;2024-03-07T06:38:13;102185.09;;;5.05;91.77
50550;BME280;36505;52.512;13.460;2024-03-07T06:40:39;102190.97;;;5.25;93.54
50550;BME280;36505;52.512;13.460;2024-03-07T06:43:06;102188.88;;;5.43;98.17
50550;BME280;36505;52.512;13.460;2024-03-07T06:45:34;102197.78;;;5.60;95.79
50550;BME280;36505;52.512;13.460;2024-03-07T06:48:05;102204.69;;;5.78;98.48
50550;BME280;36505;52.512;13.460;2024-03-07T06:50:32;102200.66;;;6.05;100.00
50550;BME280;36505;52.512;13.460;2024-03-07T06:52:58;102191.47;;;6.29;100.00
50550;BME280;36505;52.512;13.460;2024-03-07T06:55:23;102198.13;;;6.49;100.00
50550;BME280;36505;52.512;13.460;2024-03-07T06:57:48;102199.03;;;6.64;100.00
50550;BME280;36505;52.512;13.460;2024-03-07T07:00:18;102197.97;;;6.88;100.00
50550;BME280;36505;52.512;13.460;2024-03-07T07:02:48;102203.91;;;7.06;100.00
50550;BME280;36505;52.512;13.460;2024-03-07T07:05:14;102198.75;;;7.26;100.00
50550;BME280;36505;52.512;13.460;2024-03-07T07:07:44;102201.84;;;7.52;100.00
50550;BME280;36505;52.512;13.460;2024-03-07T07:10:10;102203.03;;;7.79;100.00
50550;BME280;36505;52.512;13.460;2024-03-07T07:12:42;102199.97;;;8.04;100.00
50550;BME280;36505;52.512;13.460;2024-03-07T07:15:09;102207.72;;;8.21;100.00
50550;BME280;36505;52.512;13.460;2024-03-07T07:17:35;102209.66;;;8.42;100.00
50550;BME280;36505;52.512;13.460;2024-03-07T07:20:01;102210.75;;;8.69;100.00
50550;BME280;36505;52.512;13.460;2024-03-07T07:22:26;102212.84;;;8.95;100.00
50550;BME280;36505;52.512;13.460;2024-03-07T07:24:52;102216.25;;;9.25;100.00
50550;BME280;36505;52.512;13.460;2024-03-07T07:27:17;102208.38;;;9.49;100.00
50550;BME280;36505;52.512;13.460;2024-03-07T07:29:44;102210.19;;;9.70;100.00
50550;BME280;36505;52.512;13.460;2024-03-07T07:32:10;102217.44;;;9.91;100.00
50550;BME280;36505;52.512;13.460;2024-03-07T07:34:38;102217.06;;;10.01;96.89
50550;BME280;36505;52.512;13.460;2024-03-07T07:37:04;102217.94;;;10.14;96.07
50550;BME280;36505;52.512;13.460;2024-03-07T07:39:29;102209.59;;;10.29;94.29
50550;BME280;36505;52.512;13.460;2024-03-07T07:41:55;102217.00;;;10.48;93.16
50550;BME280;36505;52.512;13.460;2024-03-07T07:44:21;102218.09;;;10.67;88.31
50550;BME280;36505;52.512;13.460;2024-03-07T07:46:48;102217.88;;;10.75;77.57
50550;BME280;36505;52.512;13.460;2024-03-07T07:49:14;102217.25;;;10.93;77.95
50550;BME280;36505;52.512;13.460;2024-03-07T07:51:41;102215.13;;;11.15;83.05
50550;BME280;36505;52.512;13.460;2024-03-07T07:54:07;102209.19;;;11.37;85.66
50550;BME280;36505;52.512;13.460;2024-03-07T07:56:34;102206.78;;;11.61;85.49
50550;BME280;36505;52.512;13.460;2024-03-07T07:59:01;102222.34;;;11.93;85.68
50550;BME280;36505;52.512;13.460;2024-03-07T08:01:26;102210.47;;;12.06;80.35
50550;BME280;36505;52.512;13.460;2024-03-07T08:03:52;102209.88;;;11.97;65.93
50550;BME280;36505;52.512;13.460;2024-03-07T08:06:18;102206.41;;;12.08;72.35
50550;BME280;36505;52.512;13.460;2024-03-07T08:08:43;102215.19;;;12.30;78.47
50550;BME280;36505;52.512;13.460;2024-03-07T08:11:09;102214.72;;;12.40;68.50
50550;BME280;36505;52.512;13.460;2024-03-07T08:13:36;102210.78;;;12.60;74.54
50550;BME280;36505;52.512;13.460;2024-03-07T08:16:01;102212.75;;;12.78;74.15
50550;BME280;36505;52.512;13.460;2024-03-07T08:18:26;102222.78;;;12.91;70.65
50550;BME280;36505;52.512;13.460;2024-03-07T08:20:52;102213.28;;;13.12;72.41
50550;BME280;36505;52.512;13.460;2024-03-07T08:23:17;102216.19;;;13.23;70.23
50550;BME280;36505;52.512;13.460;2024-03-07T08:25:43;102213.69;;;13.58;73.93
50550;BME280;36505;52.512;13.460;2024-03-07T08:28:08;102210.13;;;13.76;62.84
50550;BME280;36505;52.512;13.460;2024-03-07T08:30:34;102217.28;;;13.95;66.69
50550;BME280;36505;52.512;13.460;2024-03-07T08:33:00;102218.81;;;14.09;65.21
50550;BME280;36505;52.512;13.460;2024-03-07T08:35:28;102215.41;;;14.26;64.99
50550;BME280;36505;52.512;13.460;2024-03-07T08:37:55;102207.63;;;14.34;64.04
50550;BME280;36505;52.512;13.460;2024-03-07T08:40:25;102218.75;;;14.46;63.14
50550;BME280;36505;52.512;13.460;2024-03-07T08:42:52;102219.59;;;14.46;55.00
50550;BME280;36505;52.512;13.460;2024-03-07T08:45:19;102215.19;;;14.57;60.02
50550;BME280;36505;52.512;13.460;2024-03-07T08:47:49;102222.63;;;14.68;58.18
50550;BME280;36505;52.512;13.460;2024-03-07T08:50:15;102215.59;;;14.72;59.20
50550;BME280;36505;52.512;13.460;2024-03-07T08:52:43;102212.38;;;14.87;59.31
50550;BME280;36505;52.512;13.460;2024-03-07T08:55:11;102213.97;;;15.06;59.38
50550;BME280;36505;52.512;13.460;2024-03-07T08:57:38;102221.91;;;15.14;54.33
50550;BME280;36505;52.512;13.460;2024-03-07T09:00:04;102218.78;;;15.34;57.15
50550;BME280;36505;52.512;13.460;2024-03-07T09:02:36;102211.94;;;15.48;54.63
50550;BME280;36505;52.512;13.460;2024-03-07T09:05:02;102206.53;;;15.65;55.40
50550;BME280;36505;52.512;13.460;2024-03-07T09:07:28;102209.34;;;15.93;55.64
50550;BME280;36505;52.512;13.460;2024-03-07T09:09:54;102218.47;;;15.94;53.78
50550;BME280;36505;52.512;13.460;2024-03-07T09:12:20;102211.34;;;15.98;52.93
50550;BME280;36505;52.512;13.460;2024-03-07T09:14:45;102205.00;;;15.97;51.82
50550;BME280;36505;52.512;13.460;2024-03-07T09:17:11;102200.72;;;16.18;53.20
50550;BME280;36505;52.512;13.460;2024-03-07T09:19:38;102204.56;;;16.45;54.38
50550;BME280;36505;52.512;13.460;2024-03-07T09:22:03;102212.84;;;16.45;50.53
50550;BME280;36505;52.512;13.460;2024-03-07T09:24:30;102205.41;;;16.46;52.34
50550;BME280;36505;52.512;13.460;2024-03-07T09:26:56;102207.84;;;16.59;51.65
50550;BME280;36505;52.512;13.460;2024-03-07T09:29:22;102195.53;;;16.78;52.58
50550;BME280;36505;52.512;13.460;2024-03-07T09:31:51;102203.16;;;17.05;53.05
50550;BME280;36505;52.512;13.460;2024-03-07T09:34:20;102193.25;;;17.25;52.40
50550;BME280;36505;52.512;13.460;2024-03-07T09:36:49;102200.91;;;17.40;50.71
50550;BME280;36505;52.512;13.460;2024-03-07T09:39:15;102194.69;;;17.50;49.92
50550;BME280;36505;52.512;13.460;2024-03-07T09:41:41;102198.28;;;17.50;50.24
50550;BME280;36505;52.512;13.460;2024-03-07T09:44:18;102207.84;;;17.59;49.79
50550;BME280;36505;52.512;13.460;2024-03-07T09:46:50;102200.22;;;17.50;42.65
50550;BME280;36505;52.512;13.460;2024-03-07T09:49:16;102205.72;;;17.28;43.55
50550;BME280;36505;52.512;13.460;2024-03-07T09:51:43;102193.38;;;17.35;46.08
50550;BME280;36505;52.512;13.460;2024-03-07T09:54:10;102192.06;;;17.60;46.33
50550;BME280;36505;52.512;13.460;2024-03-07T09:56:36;102186.56;;;17.82;46.49
50550;BME280;36505;52.512;13.460;2024-03-07T09:59:03;102188.97;;;17.73;42.49
50550;BME280;36505;52.512;13.460;2024-03-07T10:01:33;102184.25;;;17.57;40.57
50550;BME280;36505;52.512;13.460;2024-03-07T10:04:02;102182.47;;;17.46;41.59
50550;BME280;36505;52.512;13.460;2024-03-07T10:06:37;102192.25;;;17.53;40.92
50550;BME280;36505;52.512;13.460;2024-03-07T10:09:04;102176.06;;;17.45;40.57
50550;BME280;36505;52.512;13.460;2024-03-07T10:11:29;102177.41;;;17.43;39.92
50550;BME280;36505;52.512;13.460;2024-03-07T10:13:55;102180.16;;;17.59;40.57
50550;BME280;36505;52.512;13.460;2024-03-07T10:16:20;102170.84;;;17.65;38.84
50550;BME280;36505;52.512;13.460;2024-03-07T10:18:46;102183.16;;;17.58;35.22
50550;BME280;36505;52.512;13.460;2024-03-07T10:21:13;102175.53;;;17.48;37.52
50550;BME280;36505;52.512;13.460;2024-03-07T10:23:39;102173.19;;;17.57;38.11
50550;BME280;36505;52.512;13.460;2024-03-07T10:26:05;102172.69;;;17.82;38.87
50550;BME280;36505;52.512;13.460;2024-03-07T10:28:32;102165.16;;;17.99;38.10
50550;BME280;36505;52.512;13.460;2024-03-07T10:30:59;102176.25;;;17.99;35.96
50550;BME280;36505;52.512;13.460;2024-03-07T10:33:27;102153.50;;;17.75;30.84
50550;BME280;36505;52.512;13.460;2024-03-07T10:35:53;102161.50;;;17.55;32.29
50550;BME280;36505;52.512;13.460;2024-03-07T10:38:19;102165.47;;;17.59;31.84
50550;BME280;36505;52.512;13.460;2024-03-07T10:40:47;102164.97;;;17.62;31.52
50550;BME280;36505;52.512;13.460;2024-03-07T10:43:20;102187.28;;;17.55;30.34
50550;BME280;36505;52.512;13.460;2024-03-07T10:45:47;102154.47;;;17.47;31.92
50550;BME280;36505;52.512;13.460;2024-03-07T10:48:13;102164.81;;;17.52;33.23
50550;BME280;36505;52.512;13.460;2024-03-07T10:55:38;102160.66;;;17.71;32.02
50550;BME280;36505;52.512;13.460;2024-03-07T10:58:09;102142.91;;;17.67;29.82
50550;BME280;36505;52.512;13.460;2024-03-07T11:00:41;102154.34;;;17.75;31.31
50550;BME280;36505;52.512;13.460;2024-03-07T11:03:11;102154.47;;;17.86;31.83
50550;BME280;36505;52.512;13.460;2024-03-07T11:05:37;102139.25;;;17.88;30.33
50550;BME280;36505;52.512;13.460;2024-03-07T11:08:03;102149.25;;;17.89;29.17
50550;BME280;36505;52.512;13.460;2024-03-07T11:10:39;102154.94;;;17.77;28.49
50550;BME280;36505;52.512;13.460;2024-03-07T11:13:06;102161.06;;;17.80;28.87
50550;BME280;36505;52.512;13.460;2024-03-07T11:15:33;102150.47;;;17.76;29.63
50550;BME280;36505;52.512;13.460;2024-03-07T11:17:59;102145.81;;;17.82;29.12
50550;BME280;36505;52.512;13.460;2024-03-07T11:20:36;102137.94;;;17.96;29.65
50550;BME280;36505;52.512;13.460;2024-03-07T11:23:31;102135.81;;;18.03;28.59
50550;BME280;36505;52.512;13.460;2024-03-07T11:26:10;102136.84;;;17.97;28.59
50550;BME280;36505;52.512;13.460;2024-03-07T11:28:37;102138.34;;;17.83;27.55
50550;BME280;36505;52.512;13.460;2024-03-07T11:31:12;102119.22;;;17.59;27.81
50550;BME280;36505;52.512;13.460;2024-03-07T11:33:38;102129.28;;;17.27;27.89
50550;BME280;36505;52.512;13.460;2024-03-07T11:36:41;102130.25;;;16.99;28.39
50550;BME280;36505;52.512;13.460;2024-03-07T11:39:46;102121.38;;;16.47;28.15
50550;BME280;36505;52.512;13.460;2024-03-07T11:44:54;102126.69;;;15.52;29.82
50550;BME280;36505;52.512;13.460;2024-03-07T11:47:24;102114.75;;;15.11;29.83
50550;BME280;36505;52.512;13.460;2024-03-07T11:49:55;102125.19;;;14.62;30.71
50550;BME280;36505;52.512;13.460;2024-03-07T11:52:23;102125.19;;;14.21;31.15
50550;BME280;36505;52.512;13.460;2024-03-07T11:54:49;102117.81;;;13.73;31.54
50550;BME280;36505;52.512;13.460;2024-03-07T11:57:15;102112.44;;;13.30;31.76
50550;BME280;36505;52.512;13.460;2024-03-07T11:59:42;102123.03;;;12.84;32.51
50550;BME280;36505;52.512;13.460;2024-03-07T12:02:12;102112.84;;;12.41;33.32
50550;BME280;36505;52.512;13.460;2024-03-07T12:04:39;102115.22;;;12.06;34.00
50550;BME280;36505;52.512;13.460;2024-03-07T12:07:05;102112.44;;;11.68;34.21
50550;BME280;36505;52.512;13.460;2024-03-07T12:09:31;102107.53;;;11.32;34.55
50550;BME280;36505;52.512;13.460;2024-03-07T12:12:02;102095.38;;;11.02;34.97
50550;BME280;36505;52.512;13.460;2024-03-07T12:14:30;102097.97;;;10.77;35.83
50550;BME280;36505;52.512;13.460;2024-03-07T12:16:56;102098.41;;;10.54;36.30
50550;BME280;36505;52.512;13.460;2024-03-07T12:19:22;102094.81;;;10.34;36.16
50550;BME280;36505;52.512;13.460;2024-03-07T12:21:48;102087.22;;;10.16;36.95
50550;BME280;36505;52.512;13.460;2024-03-07T12:24:14;102092.88;;;10.02;37.50
50550;BME280;36505;52.512;13.460;2024-03-07T12:26:41;102093.91;;;9.87;37.60
50550;BME280;36505;52.512;13.460;2024-03-07T12:29:11;102075.31;;;9.70;37.68
50550;BME280;36505;52.512;13.460;2024-03-07T12:31:41;102083.47;;;9.57;38.15
50550;BME280;36505;52.512;13.460;2024-03-07T12:34:07;102091.84;;;9.42;38.47
50550;BME280;36505;52.512;13.460;2024-03-07T12:36:37;102084.44;;;9.29;38.47
50550;BME280;36505;52.512;13.460;2024-03-07T12:39:24;102080.78;;;9.16;39.15
50550;BME280;36505;52.512;13.460;2024-03-07T12:41:55;102078.25;;;9.07;39.30
50550;BME280;36505;52.512;13.460;2024-03-07T12:44:21;102082.56;;;8.95;39.08
50550;BME280;36505;52.512;13.460;2024-03-07T12:46:52;102069.06;;;8.87;38.33
50550;BME280;36505;52.512;13.460;2024-03-07T12:49:24;102072.16;;;8.78;38.29
50550;BME280;36505;52.512;13.460;2024-03-07T12:51:55;102071.28;;;8.70;38.57
50550;BME280;36505;52.512;13.460;2024-03-07T12:54:21;102075.00;;;8.63;38.78